Airey, Mississippi
Current Conditions -  °F | °C
As of 6:53 AM on Monday 24 Nov 2014 (Local Time) from KGPT Reporting Station
Haze Haze  
Wind Chill: 66°   Ceiling: Unl
Heat Index: 66°   Visibility: 5mi
Dew Point: 65°   Wind: 7mph
Humidity: 96%   Direction: 280°W
Pressure: 29.81"   Gusts: NA
Location:  30.603°N, 89.0932°W
Report Text: KGPT 241253Z 28006KT 5SM BR CLR 19/18 A2981 RMK AO2 SLP093 T01890183
Loading
Personal Weather Stations






























Interactive Weather Map New forecast layout! Learn more

10-Day Weather Forecast

Advertisements
Track Severe Weather on mobile